sensor_id;sensor_type;location;lat;lon;timestamp;P1;durP1;ratioP1;P2;durP2;ratioP2
9364;SDS011;4722;49.340;9.800;2022-11-15T00:00:56;5.13;;;1.88;;
9364;SDS011;4722;49.340;9.800;2022-11-15T00:03:23;5.10;;;2.00;;
9364;SDS011;4722;49.340;9.800;2022-11-15T00:05:50;2.88;;;1.25;;
9364;SDS011;4722;49.340;9.800;2022-11-15T00:08:16;2.40;;;1.17;;
9364;SDS011;4722;49.340;9.800;2022-11-15T00:10:42;4.75;;;2.50;;
9364;SDS011;4722;49.340;9.800;2022-11-15T00:13:08;3.00;;;1.42;;
9364;SDS011;4722;49.340;9.800;2022-11-15T00:15:35;3.47;;;1.67;;
9364;SDS011;4722;49.340;9.800;2022-11-15T00:18:01;3.95;;;1.92;;
9364;SDS011;4722;49.340;9.800;2022-11-15T00:20:27;5.18;;;1.77;;
9364;SDS011;4722;49.340;9.800;2022-11-15T00:22:54;4.65;;;1.88;;
9364;SDS011;4722;49.340;9.800;2022-11-15T00:25:20;6.60;;;1.88;;
9364;SDS011;4722;49.340;9.800;2022-11-15T00:27:46;3.55;;;1.45;;
9364;SDS011;4722;49.340;9.800;2022-11-15T00:30:12;4.22;;;2.08;;
9364;SDS011;4722;49.340;9.800;2022-11-15T00:32:38;2.40;;;1.30;;
9364;SDS011;4722;49.340;9.800;2022-11-15T00:35:04;4.78;;;1.60;;
9364;SDS011;4722;49.340;9.800;2022-11-15T00:37:30;4.43;;;2.38;;
9364;SDS011;4722;49.340;9.800;2022-11-15T00:39:56;2.75;;;1.15;;
9364;SDS011;4722;49.340;9.800;2022-11-15T00:42:22;2.75;;;1.38;;
9364;SDS011;4722;49.340;9.800;2022-11-15T00:44:47;3.30;;;1.65;;
9364;SDS011;4722;49.340;9.800;2022-11-15T00:47:13;5.45;;;1.42;;
9364;SDS011;4722;49.340;9.800;2022-11-15T00:49:39;3.13;;;1.50;;
9364;SDS011;4722;49.340;9.800;2022-11-15T00:52:06;3.70;;;2.10;;
9364;SDS011;4722;49.340;9.800;2022-11-15T00:54:32;3.90;;;1.73;;
9364;SDS011;4722;49.340;9.800;2022-11-15T00:56:58;6.05;;;2.00;;
9364;SDS011;4722;49.340;9.800;2022-11-15T00:59:24;6.43;;;1.48;;
9364;SDS011;4722;49.340;9.800;2022-11-15T01:01:50;5.28;;;2.08;;
9364;SDS011;4722;49.340;9.800;2022-11-15T01:04:16;1.83;;;1.20;;
9364;SDS011;4722;49.340;9.800;2022-11-15T01:06:42;6.65;;;2.33;;
9364;SDS011;4722;49.340;9.800;2022-11-15T01:09:08;4.55;;;1.98;;
9364;SDS011;4722;49.340;9.800;2022-11-15T01:11:33;5.28;;;2.75;;
9364;SDS011;4722;49.340;9.800;2022-11-15T01:13:59;5.07;;;2.63;;
9364;SDS011;4722;49.340;9.800;2022-11-15T01:16:25;3.58;;;2.33;;
9364;SDS011;4722;49.340;9.800;2022-11-15T01:18:51;4.15;;;2.10;;
9364;SDS011;4722;49.340;9.800;2022-11-15T01:21:18;7.50;;;3.10;;
9364;SDS011;4722;49.340;9.800;2022-11-15T01:23:44;10.63;;;4.18;;
9364;SDS011;4722;49.340;9.800;2022-11-15T01:26:12;10.15;;;3.60;;
9364;SDS011;4722;49.340;9.800;2022-11-15T01:28:38;10.15;;;3.75;;
9364;SDS011;4722;49.340;9.800;2022-11-15T01:31:06;8.02;;;3.70;;
9364;SDS011;4722;49.340;9.800;2022-11-15T01:33:33;5.07;;;2.88;;
9364;SDS011;4722;49.340;9.800;2022-11-15T01:36:07;5.78;;;1.73;;
9364;SDS011;4722;49.340;9.800;2022-11-15T01:40:59;3.20;;;1.10;;
9364;SDS011;4722;49.340;9.800;2022-11-15T01:43:27;3.00;;;1.50;;
9364;SDS011;4722;49.340;9.800;2022-11-15T01:45:55;5.32;;;1.38;;
9364;SDS011;4722;49.340;9.800;2022-11-15T01:48:22;3.00;;;1.35;;
9364;SDS011;4722;49.340;9.800;2022-11-15T01:50:50;2.22;;;1.00;;
9364;SDS011;4722;49.340;9.800;2022-11-15T01:53:17;2.95;;;1.92;;
9364;SDS011;4722;49.340;9.800;2022-11-15T01:55:43;2.00;;;1.30;;
9364;SDS011;4722;49.340;9.800;2022-11-15T01:58:09;2.92;;;1.25;;
9364;SDS011;4722;49.340;9.800;2022-11-15T02:00:35;4.40;;;2.10;;
9364;SDS011;4722;49.340;9.800;2022-11-15T02:03:01;4.93;;;2.20;;
9364;SDS011;4722;49.340;9.800;2022-11-15T02:05:27;2.95;;;1.65;;
9364;SDS011;4722;49.340;9.800;2022-11-15T02:07:54;1.83;;;1.13;;
9364;SDS011;4722;49.340;9.800;2022-11-15T02:10:22;5.32;;;1.75;;
9364;SDS011;4722;49.340;9.800;2022-11-15T02:12:48;5.78;;;1.20;;
9364;SDS011;4722;49.340;9.800;2022-11-15T02:15:14;3.78;;;1.77;;
9364;SDS011;4722;49.340;9.800;2022-11-15T02:17:45;7.05;;;3.20;;
9364;SDS011;4722;49.340;9.800;2022-11-15T02:22:46;3.58;;;1.55;;
9364;SDS011;4722;49.340;9.800;2022-11-15T02:30:47;1.73;;;0.93;;
9364;SDS011;4722;49.340;9.800;2022-11-15T02:36:05;6.95;;;1.30;;
9364;SDS011;4722;49.340;9.800;2022-11-15T02:38:54;3.80;;;2.13;;
9364;SDS011;4722;49.340;9.800;2022-11-15T02:44:13;8.02;;;1.45;;
9364;SDS011;4722;49.340;9.800;2022-11-15T02:47:01;5.40;;;2.13;;
9364;SDS011;4722;49.340;9.800;2022-11-15T02:49:39;2.67;;;1.55;;
9364;SDS011;4722;49.340;9.800;2022-11-15T02:52:05;4.38;;;1.77;;
9364;SDS011;4722;49.340;9.800;2022-11-15T02:54:31;2.50;;;1.17;;
9364;SDS011;4722;49.340;9.800;2022-11-15T02:56:59;2.20;;;1.42;;
9364;SDS011;4722;49.340;9.800;2022-11-15T02:59:36;1.90;;;0.90;;
9364;SDS011;4722;49.340;9.800;2022-11-15T03:07:51;5.90;;;1.65;;
9364;SDS011;4722;49.340;9.800;2022-11-15T03:13:27;5.97;;;1.30;;
9364;SDS011;4722;49.340;9.800;2022-11-15T03:16:02;2.90;;;1.23;;
9364;SDS011;4722;49.340;9.800;2022-11-15T03:20:58;2.53;;;1.13;;
9364;SDS011;4722;49.340;9.800;2022-11-15T03:23:26;4.55;;;1.30;;
9364;SDS011;4722;49.340;9.800;2022-11-15T03:25:52;1.35;;;1.00;;
9364;SDS011;4722;49.340;9.800;2022-11-15T03:28:22;1.73;;;1.30;;
9364;SDS011;4722;49.340;9.800;2022-11-15T03:30:49;1.00;;;0.60;;
9364;SDS011;4722;49.340;9.800;2022-11-15T03:33:15;1.67;;;0.85;;
9364;SDS011;4722;49.340;9.800;2022-11-15T03:35:42;2.03;;;0.68;;
9364;SDS011;4722;49.340;9.800;2022-11-15T03:40:42;3.10;;;1.02;;
9364;SDS011;4722;49.340;9.800;2022-11-15T03:43:25;1.52;;;0.65;;
9364;SDS011;4722;49.340;9.800;2022-11-15T03:46:07;1.55;;;0.80;;
9364;SDS011;4722;49.340;9.800;2022-11-15T03:48:40;3.05;;;1.38;;
9364;SDS011;4722;49.340;9.800;2022-11-15T03:51:07;2.17;;;1.10;;
9364;SDS011;4722;49.340;9.800;2022-11-15T03:53:33;1.77;;;0.88;;
9364;SDS011;4722;49.340;9.800;2022-11-15T03:55:59;1.13;;;0.45;;
9364;SDS011;4722;49.340;9.800;2022-11-15T03:58:25;1.73;;;0.80;;
9364;SDS011;4722;49.340;9.800;2022-11-15T04:00:51;2.25;;;1.02;;
9364;SDS011;4722;49.340;9.800;2022-11-15T04:03:17;0.73;;;0.50;;
9364;SDS011;4722;49.340;9.800;2022-11-15T04:05:43;2.13;;;0.52;;
9364;SDS011;4722;49.340;9.800;2022-11-15T04:08:09;2.40;;;1.33;;
9364;SDS011;4722;49.340;9.800;2022-11-15T04:10:35;1.35;;;0.95;;
9364;SDS011;4722;49.340;9.800;2022-11-15T04:13:01;4.28;;;1.20;;
9364;SDS011;4722;49.340;9.800;2022-11-15T04:15:27;2.10;;;1.55;;
9364;SDS011;4722;49.340;9.800;2022-11-15T04:17:55;2.08;;;1.40;;
9364;SDS011;4722;49.340;9.800;2022-11-15T04:20:22;2.47;;;1.17;;
9364;SDS011;4722;49.340;9.800;2022-11-15T04:23:09;7.93;;;1.40;;
9364;SDS011;4722;49.340;9.800;2022-11-15T04:25:56;3.42;;;2.00;;
9364;SDS011;4722;49.340;9.800;2022-11-15T04:28:23;4.45;;;3.00;;
9364;SDS011;4722;49.340;9.800;2022-11-15T04:30:49;3.60;;;2.35;;
9364;SDS011;4722;49.340;9.800;2022-11-15T04:33:15;1.27;;;1.13;;
9364;SDS011;4722;49.340;9.800;2022-11-15T04:35:41;2.78;;;1.20;;
9364;SDS011;4722;49.340;9.800;2022-11-15T04:38:08;2.58;;;0.90;;
9364;SDS011;4722;49.340;9.800;2022-11-15T04:40:35;3.28;;;1.38;;
9364;SDS011;4722;49.340;9.800;2022-11-15T04:43:01;0.88;;;0.60;;
9364;SDS011;4722;49.340;9.800;2022-11-15T04:45:27;1.20;;;0.55;;
9364;SDS011;4722;49.340;9.800;2022-11-15T04:47:53;2.55;;;0.60;;
9364;SDS011;4722;49.340;9.800;2022-11-15T04:50:19;3.42;;;1.02;;
9364;SDS011;4722;49.340;9.800;2022-11-15T04:52:52;1.98;;;1.10;;
9364;SDS011;4722;49.340;9.800;2022-11-15T04:55:18;3.03;;;1.25;;
9364;SDS011;4722;49.340;9.800;2022-11-15T04:57:44;3.47;;;1.02;;
9364;SDS011;4722;49.340;9.800;2022-11-15T05:00:11;1.73;;;0.93;;
9364;SDS011;4722;49.340;9.800;2022-11-15T05:02:38;1.77;;;0.93;;
9364;SDS011;4722;49.340;9.800;2022-11-15T05:05:23;1.60;;;1.15;;
9364;SDS011;4722;49.340;9.800;2022-11-15T05:07:49;2.50;;;1.15;;
9364;SDS011;4722;49.340;9.800;2022-11-15T05:10:15;2.72;;;1.10;;
9364;SDS011;4722;49.340;9.800;2022-11-15T05:12:41;1.60;;;0.77;;
9364;SDS011;4722;49.340;9.800;2022-11-15T05:15:07;1.88;;;1.00;;
9364;SDS011;4722;49.340;9.800;2022-11-15T05:17:33;2.13;;;0.88;;
9364;SDS011;4722;49.340;9.800;2022-11-15T05:19:59;2.15;;;0.98;;
9364;SDS011;4722;49.340;9.800;2022-11-15T05:22:25;2.05;;;1.05;;
9364;SDS011;4722;49.340;9.800;2022-11-15T05:24:51;1.70;;;0.90;;
9364;SDS011;4722;49.340;9.800;2022-11-15T05:27:17;2.30;;;1.45;;
9364;SDS011;4722;49.340;9.800;2022-11-15T05:29:43;2.97;;;1.00;;
9364;SDS011;4722;49.340;9.800;2022-11-15T05:32:09;3.70;;;1.17;;
9364;SDS011;4722;49.340;9.800;2022-11-15T05:34:37;4.13;;;1.70;;
9364;SDS011;4722;49.340;9.800;2022-11-15T05:37:03;3.70;;;1.58;;
9364;SDS011;4722;49.340;9.800;2022-11-15T05:39:29;1.50;;;1.08;;
9364;SDS011;4722;49.340;9.800;2022-11-15T05:41:56;2.92;;;1.63;;
9364;SDS011;4722;49.340;9.800;2022-11-15T05:44:35;2.80;;;1.48;;
9364;SDS011;4722;49.340;9.800;2022-11-15T05:47:02;5.28;;;2.45;;
9364;SDS011;4722;49.340;9.800;2022-11-15T05:49:30;14.75;;;7.05;;
9364;SDS011;4722;49.340;9.800;2022-11-15T05:51:57;6.40;;;3.72;;
9364;SDS011;4722;49.340;9.800;2022-11-15T05:54:23;5.47;;;1.73;;
9364;SDS011;4722;49.340;9.800;2022-11-15T05:56:50;4.40;;;1.50;;
9364;SDS011;4722;49.340;9.800;2022-11-15T05:59:16;5.35;;;2.20;;
9364;SDS011;4722;49.340;9.800;2022-11-15T06:01:42;4.85;;;1.92;;
9364;SDS011;4722;49.340;9.800;2022-11-15T06:04:08;3.15;;;2.00;;
9364;SDS011;4722;49.340;9.800;2022-11-15T06:06:34;2.85;;;1.50;;
9364;SDS011;4722;49.340;9.800;2022-11-15T06:09:00;3.70;;;1.85;;
9364;SDS011;4722;49.340;9.800;2022-11-15T06:11:26;2.15;;;0.90;;
9364;SDS011;4722;49.340;9.800;2022-11-15T06:13:52;1.38;;;1.10;;
9364;SDS011;4722;49.340;9.800;2022-11-15T06:16:17;6.10;;;1.60;;
9364;SDS011;4722;49.340;9.800;2022-11-15T06:18:43;2.88;;;1.55;;
9364;SDS011;4722;49.340;9.800;2022-11-15T06:21:09;2.78;;;1.83;;
9364;SDS011;4722;49.340;9.800;2022-11-15T06:23:35;4.82;;;2.03;;
9364;SDS011;4722;49.340;9.800;2022-11-15T06:26:02;14.30;;;5.57;;
9364;SDS011;4722;49.340;9.800;2022-11-15T06:28:29;31.65;;;11.07;;
9364;SDS011;4722;49.340;9.800;2022-11-15T06:30:55;21.95;;;9.43;;
9364;SDS011;4722;49.340;9.800;2022-11-15T06:33:21;19.08;;;8.25;;
9364;SDS011;4722;49.340;9.800;2022-11-15T06:35:47;16.42;;;7.70;;
9364;SDS011;4722;49.340;9.800;2022-11-15T06:38:13;23.63;;;9.32;;
9364;SDS011;4722;49.340;9.800;2022-11-15T06:40:39;16.23;;;7.22;;
9364;SDS011;4722;49.340;9.800;2022-11-15T06:43:05;19.17;;;8.48;;
9364;SDS011;4722;49.340;9.800;2022-11-15T06:45:32;24.08;;;10.45;;
9364;SDS011;4722;49.340;9.800;2022-11-15T06:47:58;24.17;;;10.48;;
9364;SDS011;4722;49.340;9.800;2022-11-15T06:50:24;43.95;;;14.23;;
9364;SDS011;4722;49.340;9.800;2022-11-15T06:52:50;27.38;;;10.50;;
9364;SDS011;4722;49.340;9.800;2022-11-15T06:55:16;27.17;;;10.60;;
9364;SDS011;4722;49.340;9.800;2022-11-15T06:57:51;23.35;;;10.18;;
9364;SDS011;4722;49.340;9.800;2022-11-15T07:00:19;21.35;;;9.52;;
9364;SDS011;4722;49.340;9.800;2022-11-15T07:02:46;23.40;;;8.57;;
9364;SDS011;4722;49.340;9.800;2022-11-15T07:05:12;19.98;;;6.88;;
9364;SDS011;4722;49.340;9.800;2022-11-15T07:07:38;12.15;;;4.97;;
9364;SDS011;4722;49.340;9.800;2022-11-15T07:10:04;8.07;;;3.47;;
9364;SDS011;4722;49.340;9.800;2022-11-15T07:12:30;9.65;;;4.35;;
9364;SDS011;4722;49.340;9.800;2022-11-15T07:14:56;7.38;;;3.10;;
9364;SDS011;4722;49.340;9.800;2022-11-15T07:17:22;8.20;;;3.83;;
9364;SDS011;4722;49.340;9.800;2022-11-15T07:19:48;10.25;;;5.70;;
9364;SDS011;4722;49.340;9.800;2022-11-15T07:22:14;21.83;;;9.80;;
9364;SDS011;4722;49.340;9.800;2022-11-15T07:24:40;20.80;;;11.32;;
9364;SDS011;4722;49.340;9.800;2022-11-15T07:27:06;21.90;;;10.50;;
9364;SDS011;4722;49.340;9.800;2022-11-15T07:29:31;18.00;;;9.38;;
9364;SDS011;4722;49.340;9.800;2022-11-15T07:31:57;17.42;;;8.85;;
9364;SDS011;4722;49.340;9.800;2022-11-15T07:34:24;22.88;;;9.60;;
9364;SDS011;4722;49.340;9.800;2022-11-15T07:36:50;14.77;;;8.10;;
9364;SDS011;4722;49.340;9.800;2022-11-15T07:39:16;13.05;;;6.30;;
9364;SDS011;4722;49.340;9.800;2022-11-15T07:41:42;14.23;;;7.15;;
9364;SDS011;4722;49.340;9.800;2022-11-15T07:44:08;9.23;;;4.05;;
9364;SDS011;4722;49.340;9.800;2022-11-15T07:46:34;8.00;;;3.30;;
9364;SDS011;4722;49.340;9.800;2022-11-15T07:49:00;11.20;;;4.88;;
9364;SDS011;4722;49.340;9.800;2022-11-15T07:51:26;10.65;;;4.85;;
9364;SDS011;4722;49.340;9.800;2022-11-15T07:53:52;15.52;;;6.30;;
9364;SDS011;4722;49.340;9.800;2022-11-15T07:56:18;11.68;;;6.63;;
9364;SDS011;4722;49.340;9.800;2022-11-15T07:58:45;11.27;;;5.03;;
9364;SDS011;4722;49.340;9.800;2022-11-15T08:01:11;10.52;;;5.18;;
9364;SDS011;4722;49.340;9.800;2022-11-15T08:03:38;8.98;;;4.07;;
9364;SDS011;4722;49.340;9.800;2022-11-15T08:06:04;6.35;;;4.10;;
9364;SDS011;4722;49.340;9.800;2022-11-15T08:08:30;9.13;;;4.88;;
9364;SDS011;4722;49.340;9.800;2022-11-15T08:10:59;6.90;;;3.67;;
9364;SDS011;4722;49.340;9.800;2022-11-15T08:13:25;9.23;;;4.22;;
9364;SDS011;4722;49.340;9.800;2022-11-15T08:15:50;7.13;;;3.20;;
9364;SDS011;4722;49.340;9.800;2022-11-15T08:18:16;4.85;;;3.45;;
9364;SDS011;4722;49.340;9.800;2022-11-15T08:20:42;6.15;;;4.38;;
9364;SDS011;4722;49.340;9.800;2022-11-15T08:23:10;24.00;;;4.75;;
9364;SDS011;4722;49.340;9.800;2022-11-15T08:25:36;13.48;;;6.13;;
9364;SDS011;4722;49.340;9.800;2022-11-15T08:28:03;30.65;;;8.70;;
9364;SDS011;4722;49.340;9.800;2022-11-15T08:30:31;34.08;;;8.00;;
9364;SDS011;4722;49.340;9.800;2022-11-15T08:33:02;19.77;;;6.57;;
9364;SDS011;4722;49.340;9.800;2022-11-15T08:35:28;6.82;;;3.42;;
9364;SDS011;4722;49.340;9.800;2022-11-15T08:37:54;7.93;;;2.15;;
9364;SDS011;4722;49.340;9.800;2022-11-15T08:40:20;3.95;;;1.90;;
9364;SDS011;4722;49.340;9.800;2022-11-15T08:42:46;5.40;;;2.22;;
9364;SDS011;4722;49.340;9.800;2022-11-15T08:45:12;6.22;;;2.95;;
9364;SDS011;4722;49.340;9.800;2022-11-15T08:47:38;8.82;;;1.90;;
9364;SDS011;4722;49.340;9.800;2022-11-15T08:50:04;2.15;;;1.38;;
9364;SDS011;4722;49.340;9.800;2022-11-15T08:52:31;4.00;;;1.60;;
9364;SDS011;4722;49.340;9.800;2022-11-15T08:54:57;5.60;;;2.00;;
9364;SDS011;4722;49.340;9.800;2022-11-15T08:57:22;10.07;;;2.13;;
9364;SDS011;4722;49.340;9.800;2022-11-15T08:59:48;7.35;;;2.20;;
9364;SDS011;4722;49.340;9.800;2022-11-15T09:02:14;8.73;;;2.80;;
9364;SDS011;4722;49.340;9.800;2022-11-15T09:04:41;13.50;;;2.15;;
9364;SDS011;4722;49.340;9.800;2022-11-15T09:07:07;5.53;;;2.10;;
9364;SDS011;4722;49.340;9.800;2022-11-15T09:09:33;7.35;;;1.80;;
9364;SDS011;4722;49.340;9.800;2022-11-15T09:11:59;3.70;;;2.00;;
9364;SDS011;4722;49.340;9.800;2022-11-15T09:14:25;7.70;;;1.58;;
9364;SDS011;4722;49.340;9.800;2022-11-15T09:16:51;3.00;;;1.58;;
9364;SDS011;4722;49.340;9.800;2022-11-15T09:19:17;7.05;;;2.75;;
9364;SDS011;4722;49.340;9.800;2022-11-15T09:21:43;10.65;;;2.40;;
9364;SDS011;4722;49.340;9.800;2022-11-15T09:24:09;6.45;;;2.20;;
9364;SDS011;4722;49.340;9.800;2022-11-15T09:26:35;5.78;;;2.42;;
9364;SDS011;4722;49.340;9.800;2022-11-15T09:29:01;3.50;;;1.60;;
9364;SDS011;4722;49.340;9.800;2022-11-15T09:31:27;7.60;;;3.03;;
9364;SDS011;4722;49.340;9.800;2022-11-15T09:33:54;8.15;;;1.85;;
9364;SDS011;4722;49.340;9.800;2022-11-15T09:36:20;3.33;;;1.80;;
9364;SDS011;4722;49.340;9.800;2022-11-15T09:38:46;5.03;;;1.50;;
9364;SDS011;4722;49.340;9.800;2022-11-15T09:43:42;31.00;;;4.78;;
9364;SDS011;4722;49.340;9.800;2022-11-15T09:46:15;7.28;;;2.83;;
9364;SDS011;4722;49.340;9.800;2022-11-15T09:49:17;18.10;;;2.90;;
9364;SDS011;4722;49.340;9.800;2022-11-15T09:51:44;6.88;;;2.00;;
9364;SDS011;4722;49.340;9.800;2022-11-15T09:57:05;5.93;;;1.55;;
9364;SDS011;4722;49.340;9.800;2022-11-15T09:59:58;18.83;;;3.33;;
9364;SDS011;4722;49.340;9.800;2022-11-15T10:02:43;17.23;;;2.67;;
9364;SDS011;4722;49.340;9.800;2022-11-15T10:05:16;4.68;;;1.88;;
9364;SDS011;4722;49.340;9.800;2022-11-15T10:10:23;4.68;;;1.52;;
9364;SDS011;4722;49.340;9.800;2022-11-15T10:12:54;18.17;;;3.80;;
9364;SDS011;4722;49.340;9.800;2022-11-15T10:15:20;17.65;;;2.88;;
9364;SDS011;4722;49.340;9.800;2022-11-15T10:21:06;5.03;;;1.20;;
9364;SDS011;4722;49.340;9.800;2022-11-15T10:23:46;3.03;;;1.55;;
9364;SDS011;4722;49.340;9.800;2022-11-15T10:26:14;3.30;;;1.85;;
9364;SDS011;4722;49.340;9.800;2022-11-15T10:28:41;3.08;;;1.42;;
9364;SDS011;4722;49.340;9.800;2022-11-15T10:31:26;2.95;;;1.60;;
9364;SDS011;4722;49.340;9.800;2022-11-15T10:36:44;8.35;;;2.10;;
9364;SDS011;4722;49.340;9.800;2022-11-15T10:39:23;3.45;;;1.73;;
9364;SDS011;4722;49.340;9.800;2022-11-15T10:41:49;4.13;;;2.35;;
9364;SDS011;4722;49.340;9.800;2022-11-15T10:46:42;11.75;;;2.55;;
9364;SDS011;4722;49.340;9.800;2022-11-15T10:49:15;16.38;;;2.63;;
9364;SDS011;4722;49.340;9.800;2022-11-15T10:51:49;10.25;;;2.25;;
9364;SDS011;4722;49.340;9.800;2022-11-15T10:54:21;6.38;;;2.03;;
9364;SDS011;4722;49.340;9.800;2022-11-15T10:56:50;5.53;;;1.48;;
9364;SDS011;4722;49.340;9.800;2022-11-15T10:59:31;11.70;;;2.47;;
9364;SDS011;4722;49.340;9.800;2022-11-15T11:01:58;4.30;;;1.92;;
9364;SDS011;4722;49.340;9.800;2022-11-15T11:04:25;4.55;;;1.55;;
9364;SDS011;4722;49.340;9.800;2022-11-15T11:09:38;15.75;;;3.33;;
9364;SDS011;4722;49.340;9.800;2022-11-15T11:12:04;14.27;;;2.63;;
9364;SDS011;4722;49.340;9.800;2022-11-15T11:14:35;9.75;;;2.63;;
9364;SDS011;4722;49.340;9.800;2022-11-15T11:19:37;6.57;;;2.38;;
9364;SDS011;4722;49.340;9.800;2022-11-15T11:25:04;5.47;;;2.63;;
9364;SDS011;4722;49.340;9.800;2022-11-15T11:30:14;2.90;;;1.60;;
9364;SDS011;4722;49.340;9.800;2022-11-15T11:49:07;2.45;;;1.00;;
9364;SDS011;4722;49.340;9.800;2022-11-15T11:54:10;2.22;;;1.13;;
9364;SDS011;4722;49.340;9.800;2022-11-15T11:56:50;1.27;;;0.80;;
9364;SDS011;4722;49.340;9.800;2022-11-15T12:02:21;2.30;;;0.90;;
9364;SDS011;4722;49.340;9.800;2022-11-15T12:04:55;1.70;;;0.57;;
9364;SDS011;4722;49.340;9.800;2022-11-15T12:07:29;1.20;;;0.73;;
9364;SDS011;4722;49.340;9.800;2022-11-15T12:09:59;1.10;;;0.50;;
9364;SDS011;4722;49.340;9.800;2022-11-15T12:12:31;2.08;;;0.80;;
9364;SDS011;4722;49.340;9.800;2022-11-15T12:15:26;3.72;;;1.40;;
9364;SDS011;4722;49.340;9.800;2022-11-15T12:17:52;4.18;;;0.88;;
9364;SDS011;4722;49.340;9.800;2022-11-15T12:20:24;3.03;;;1.30;;
9364;SDS011;4722;49.340;9.800;2022-11-15T12:22:59;1.58;;;0.68;;
9364;SDS011;4722;49.340;9.800;2022-11-15T12:25:34;3.55;;;0.80;;
9364;SDS011;4722;49.340;9.800;2022-11-15T12:31:04;4.30;;;1.13;;
9364;SDS011;4722;49.340;9.800;2022-11-15T12:33:44;6.93;;;1.98;;
9364;SDS011;4722;49.340;9.800;2022-11-15T12:36:29;2.53;;;0.85;;
9364;SDS011;4722;49.340;9.800;2022-11-15T12:41:32;5.93;;;1.48;;
9364;SDS011;4722;49.340;9.800;2022-11-15T12:43:59;3.08;;;1.60;;
9364;SDS011;4722;49.340;9.800;2022-11-15T12:48:58;2.85;;;1.67;;
9364;SDS011;4722;49.340;9.800;2022-11-15T13:04:49;2.95;;;1.08;;
9364;SDS011;4722;49.340;9.800;2022-11-15T13:07:58;2.88;;;1.00;;
9364;SDS011;4722;49.340;9.800;2022-11-15T13:38:33;1.55;;;0.90;;
9364;SDS011;4722;49.340;9.800;2022-11-15T13:43:45;1.55;;;0.93;;
9364;SDS011;4722;49.340;9.800;2022-11-15T13:49:00;2.22;;;0.68;;
9364;SDS011;4722;49.340;9.800;2022-11-15T13:51:46;2.25;;;0.75;;
9364;SDS011;4722;49.340;9.800;2022-11-15T13:56:40;2.03;;;0.70;;
9364;SDS011;4722;49.340;9.800;2022-11-15T13:59:17;4.00;;;0.77;;
9364;SDS011;4722;49.340;9.800;2022-11-15T14:01:53;5.07;;;0.75;;
9364;SDS011;4722;49.340;9.800;2022-11-15T14:04:22;2.60;;;0.50;;
9364;SDS011;4722;49.340;9.800;2022-11-15T14:06:55;4.00;;;0.70;;
9364;SDS011;4722;49.340;9.800;2022-11-15T14:15:19;1.38;;;0.77;;
9364;SDS011;4722;49.340;9.800;2022-11-15T14:17:52;4.85;;;0.98;;
9364;SDS011;4722;49.340;9.800;2022-11-15T14:22:56;1.42;;;0.85;;
9364;SDS011;4722;49.340;9.800;2022-11-15T14:25:23;2.97;;;1.27;;
9364;SDS011;4722;49.340;9.800;2022-11-15T14:30:40;1.17;;;0.82;;
9364;SDS011;4722;49.340;9.800;2022-11-15T14:35:56;3.20;;;0.77;;
9364;SDS011;4722;49.340;9.800;2022-11-15T14:38:35;2.13;;;0.80;;
9364;SDS011;4722;49.340;9.800;2022-11-15T14:41:02;2.92;;;1.80;;
9364;SDS011;4722;49.340;9.800;2022-11-15T14:43:28;2.38;;;1.55;;
9364;SDS011;4722;49.340;9.800;2022-11-15T14:45:53;3.97;;;2.03;;
9364;SDS011;4722;49.340;9.800;2022-11-15T14:48:19;5.15;;;1.50;;
9364;SDS011;4722;49.340;9.800;2022-11-15T14:50:46;3.17;;;1.58;;
9364;SDS011;4722;49.340;9.800;2022-11-15T14:53:13;4.55;;;1.80;;
9364;SDS011;4722;49.340;9.800;2022-11-15T14:55:41;4.22;;;1.73;;
9364;SDS011;4722;49.340;9.800;2022-11-15T14:58:07;4.75;;;1.50;;
9364;SDS011;4722;49.340;9.800;2022-11-15T15:00:52;3.88;;;1.67;;
9364;SDS011;4722;49.340;9.800;2022-11-15T15:03:18;5.10;;;1.15;;
9364;SDS011;4722;49.340;9.800;2022-11-15T15:05:44;9.15;;;2.42;;
9364;SDS011;4722;49.340;9.800;2022-11-15T15:08:10;12.80;;;3.85;;
9364;SDS011;4722;49.340;9.800;2022-11-15T15:10:38;7.20;;;2.45;;
9364;SDS011;4722;49.340;9.800;2022-11-15T15:13:05;8.85;;;3.60;;
9364;SDS011;4722;49.340;9.800;2022-11-15T15:15:35;5.53;;;2.03;;
9364;SDS011;4722;49.340;9.800;2022-11-15T15:18:02;5.90;;;2.63;;
9364;SDS011;4722;49.340;9.800;2022-11-15T15:20:30;4.45;;;2.45;;
9364;SDS011;4722;49.340;9.800;2022-11-15T15:22:56;2.67;;;1.73;;
9364;SDS011;4722;49.340;9.800;2022-11-15T15:25:32;3.83;;;1.90;;
9364;SDS011;4722;49.340;9.800;2022-11-15T15:27:58;7.20;;;2.33;;
9364;SDS011;4722;49.340;9.800;2022-11-15T15:30:25;5.30;;;1.80;;
9364;SDS011;4722;49.340;9.800;2022-11-15T15:32:51;3.47;;;1.48;;
9364;SDS011;4722;49.340;9.800;2022-11-15T15:35:18;6.55;;;2.00;;
9364;SDS011;4722;49.340;9.800;2022-11-15T15:37:45;9.98;;;2.60;;
9364;SDS011;4722;49.340;9.800;2022-11-15T15:40:15;3.42;;;1.90;;
9364;SDS011;4722;49.340;9.800;2022-11-15T15:45:10;2.78;;;1.52;;
9364;SDS011;4722;49.340;9.800;2022-11-15T15:47:36;2.65;;;1.55;;
9364;SDS011;4722;49.340;9.800;2022-11-15T15:50:02;2.22;;;1.45;;
9364;SDS011;4722;49.340;9.800;2022-11-15T15:52:28;2.03;;;1.10;;
9364;SDS011;4722;49.340;9.800;2022-11-15T15:54:54;3.05;;;1.80;;
9364;SDS011;4722;49.340;9.800;2022-11-15T15:57:20;4.05;;;2.35;;
9364;SDS011;4722;49.340;9.800;2022-11-15T15:59:46;8.07;;;3.25;;
9364;SDS011;4722;49.340;9.800;2022-11-15T16:02:12;12.77;;;3.88;;
9364;SDS011;4722;49.340;9.800;2022-11-15T16:04:38;12.57;;;3.45;;
9364;SDS011;4722;49.340;9.800;2022-11-15T16:07:04;9.07;;;2.70;;
9364;SDS011;4722;49.340;9.800;2022-11-15T16:09:30;5.07;;;2.20;;
9364;SDS011;4722;49.340;9.800;2022-11-15T16:12:15;4.95;;;1.95;;
9364;SDS011;4722;49.340;9.800;2022-11-15T16:14:42;2.80;;;1.77;;
9364;SDS011;4722;49.340;9.800;2022-11-15T16:17:09;3.50;;;1.33;;
9364;SDS011;4722;49.340;9.800;2022-11-15T16:19:37;7.18;;;1.40;;
9364;SDS011;4722;49.340;9.800;2022-11-15T16:22:03;5.25;;;1.40;;
9364;SDS011;4722;49.340;9.800;2022-11-15T16:24:29;3.72;;;1.45;;
9364;SDS011;4722;49.340;9.800;2022-11-15T16:26:55;6.80;;;1.58;;
9364;SDS011;4722;49.340;9.800;2022-11-15T16:29:21;5.72;;;2.15;;
9364;SDS011;4722;49.340;9.800;2022-11-15T16:31:47;4.07;;;1.85;;
9364;SDS011;4722;49.340;9.800;2022-11-15T16:34:13;7.80;;;2.95;;
9364;SDS011;4722;49.340;9.800;2022-11-15T16:36:39;11.10;;;3.25;;
9364;SDS011;4722;49.340;9.800;2022-11-15T16:39:04;12.38;;;2.35;;
9364;SDS011;4722;49.340;9.800;2022-11-15T16:41:31;14.50;;;5.65;;
9364;SDS011;4722;49.340;9.800;2022-11-15T16:43:57;17.58;;;5.65;;
9364;SDS011;4722;49.340;9.800;2022-11-15T16:46:24;45.15;;;14.45;;
9364;SDS011;4722;49.340;9.800;2022-11-15T16:48:50;71.47;;;25.90;;
9364;SDS011;4722;49.340;9.800;2022-11-15T16:51:17;40.03;;;13.80;;
9364;SDS011;4722;49.340;9.800;2022-11-15T16:53:43;17.75;;;5.45;;
9364;SDS011;4722;49.340;9.800;2022-11-15T16:56:29;35.63;;;13.00;;
9364;SDS011;4722;49.340;9.800;2022-11-15T16:58:55;24.50;;;9.68;;
9364;SDS011;4722;49.340;9.800;2022-11-15T17:01:26;21.48;;;8.02;;
9364;SDS011;4722;49.340;9.800;2022-11-15T17:03:52;12.68;;;5.05;;
9364;SDS011;4722;49.340;9.800;2022-11-15T17:06:18;10.07;;;4.43;;
9364;SDS011;4722;49.340;9.800;2022-11-15T17:08:45;9.52;;;5.25;;
9364;SDS011;4722;49.340;9.800;2022-11-15T17:11:15;17.08;;;7.20;;
9364;SDS011;4722;49.340;9.800;2022-11-15T17:13:42;20.70;;;7.75;;
9364;SDS011;4722;49.340;9.800;2022-11-15T17:16:09;15.88;;;6.68;;
9364;SDS011;4722;49.340;9.800;2022-11-15T17:18:36;6.25;;;3.08;;
9364;SDS011;4722;49.340;9.800;2022-11-15T17:21:03;6.03;;;2.75;;
9364;SDS011;4722;49.340;9.800;2022-11-15T17:23:29;15.45;;;4.45;;
9364;SDS011;4722;49.340;9.800;2022-11-15T17:25:59;7.78;;;3.63;;
9364;SDS011;4722;49.340;9.800;2022-11-15T17:28:27;7.13;;;1.88;;
9364;SDS011;4722;49.340;9.800;2022-11-15T17:30:53;7.95;;;1.77;;
9364;SDS011;4722;49.340;9.800;2022-11-15T17:33:19;6.60;;;1.75;;
9364;SDS011;4722;49.340;9.800;2022-11-15T17:35:45;4.07;;;1.38;;
9364;SDS011;4722;49.340;9.800;2022-11-15T17:38:11;2.85;;;1.50;;
9364;SDS011;4722;49.340;9.800;2022-11-15T17:40:38;2.95;;;1.45;;
9364;SDS011;4722;49.340;9.800;2022-11-15T17:43:04;6.03;;;3.35;;
9364;SDS011;4722;49.340;9.800;2022-11-15T17:45:31;8.55;;;3.60;;
9364;SDS011;4722;49.340;9.800;2022-11-15T17:47:56;7.82;;;4.22;;
9364;SDS011;4722;49.340;9.800;2022-11-15T17:50:22;9.07;;;4.60;;
9364;SDS011;4722;49.340;9.800;2022-11-15T17:52:48;8.93;;;4.30;;